Time;durP1;ratioP1;P1;durP2;ratioP2;P2;SDS_P1;SDS_P2;PMS_P1;PMS_P2;Temp;Humidity;BMP_temperature;BMP_pressure;BME280_temperature;BME280_humidity;BME280_pressure;Samples;Min_cycle;Max_cycle;Signal;HPM_P1;HPM_P2
2023/11/30 00:00:04;;;;;;;11.32;5.15;;;;;;;-1.19;100.00;95342.41;5040153;28;20037;-76
2023/11/30 00:02:32;;;;;;;5.75;4.30;;;;;;;-1.19;100.00;95340.53;5052311;28;20095;-74
2023/11/30 00:04:58;;;;;;;10.43;5.20;;;;;;;-1.21;100.00;95331.97;5042917;28;20122;-74
2023/11/30 00:07:23;;;;;;;10.55;5.05;;;;;;;-1.24;100.00;95334.53;5036809;28;20049;-73
2023/11/30 00:09:48;;;;;;;8.43;5.00;;;;;;;-1.24;100.00;95335.34;5044677;28;20102;-72
2023/11/30 00:12:14;;;;;;;6.80;4.65;;;;;;;-1.16;100.00;95333.72;5006765;28;20570;-72
2023/11/30 00:14:40;;;;;;;7.47;4.85;;;;;;;-1.02;100.00;95334.25;5020879;28;20626;-72
2023/11/30 00:17:05;;;;;;;9.48;5.00;;;;;;;-1.07;100.00;95326.38;5033685;28;20045;-74
2023/11/30 00:19:31;;;;;;;8.10;4.82;;;;;;;-1.11;100.00;95324.69;5017778;28;20045;-73
2023/11/30 00:21:56;;;;;;;10.85;5.22;;;;;;;-1.13;100.00;95332.25;5023805;28;20049;-72
2023/11/30 00:24:21;;;;;;;12.98;5.65;;;;;;;-1.15;100.00;95340.66;5025984;28;20594;-72
2023/11/30 00:26:47;;;;;;;8.30;5.35;;;;;;;-1.14;100.00;95338.75;5044506;28;20563;-71
2023/11/30 00:29:12;;;;;;;7.45;4.75;;;;;;;-1.07;100.00;95336.34;5027413;28;20052;-72
2023/11/30 00:31:37;;;;;;;8.98;5.05;;;;;;;-1.04;100.00;95330.34;5027680;28;20038;-71
2023/11/30 00:34:03;;;;;;;6.90;4.90;;;;;;;-1.05;100.00;95334.13;5039983;28;20147;-74
2023/11/30 00:36:28;;;;;;;6.93;5.22;;;;;;;-1.02;100.00;95328.88;5035543;28;20048;-73
2023/11/30 00:38:54;;;;;;;10.15;5.10;;;;;;;-0.99;100.00;95322.06;5007477;28;20041;-72
2023/11/30 00:41:19;;;;;;;8.38;5.43;;;;;;;-0.99;100.00;95322.06;5038952;28;20045;-74
2023/11/30 00:43:44;;;;;;;5.88;5.10;;;;;;;-1.03;100.00;95311.19;5024576;28;20068;-71
2023/11/30 00:46:14;;;;;;;8.07;4.88;;;;;;;-1.05;100.00;95313.41;5021020;28;20496;-72
2023/11/30 00:48:39;;;;;;;;;;;;;;;-1.05;100.00;95312.63;5059611;28;20037;-71
2023/11/30 00:51:10;;;;;;;7.60;4.60;;;;;;;-1.04;100.00;95308.84;5038257;28;19935;-74
2023/11/30 00:53:37;;;;;;;12.55;4.55;;;;;;;-0.99;100.00;95308.63;5053892;28;20295;-71
2023/11/30 00:56:03;;;;;;;6.88;4.13;;;;;;;-0.98;100.00;95305.63;5052814;28;20410;-72
2023/11/30 00:58:29;;;;;;;6.35;4.30;;;;;;;-1.00;100.00;95297.09;5051736;28;20044;-71
2023/11/30 01:00:54;;;;;;;6.82;4.70;;;;;;;-0.98;100.00;95294.09;5048661;28;20044;-71
2023/11/30 01:03:20;;;;;;;6.63;4.13;;;;;;;-1.00;100.00;95286.34;5039817;28;20079;-72
2023/11/30 01:05:45;;;;;;;10.38;4.60;;;;;;;-0.98;100.00;95296.78;5045070;28;20405;-73
2023/11/30 01:08:12;;;;;;;6.10;4.07;;;;;;;-0.97;100.00;95292.97;5049405;28;20480;-73
2023/11/30 01:10:37;;;;;;;9.13;4.40;;;;;;;-0.99;100.00;95301.38;5042432;28;20557;-71
2023/11/30 01:13:03;;;;;;;6.78;4.30;;;;;;;-0.97;100.00;95309.88;5047430;28;20072;-73
2023/11/30 01:15:28;;;;;;;8.18;4.25;;;;;;;-0.91;100.00;95299.72;5040664;28;20049;-72
2023/11/30 01:17:54;;;;;;;10.23;4.20;;;;;;;-0.82;100.00;95284.31;5029262;28;20037;-72
2023/11/30 01:20:19;;;;;;;6.60;4.10;;;;;;;-0.89;100.00;95284.06;5043044;28;20032;-72
2023/11/30 01:22:44;;;;;;;6.00;3.63;;;;;;;-0.81;100.00;95285.09;5054289;28;20102;-71
2023/11/30 01:25:10;;;;;;;7.70;3.85;;;;;;;-0.72;100.00;95275.09;5037643;28;20044;-73
2023/11/30 01:27:36;;;;;;;6.78;4.00;;;;;;;-0.72;100.00;95274.28;5052644;28;20047;-73
2023/11/30 01:30:02;;;;;;;6.30;3.67;;;;;;;-0.81;100.00;95280.53;5052792;28;20131;-73
2023/11/30 01:32:28;;;;;;;7.22;4.47;;;;;;;-0.90;100.00;95279.81;5041327;28;20055;-72
2023/11/30 01:34:53;;;;;;;5.05;3.50;;;;;;;-0.94;100.00;95276.19;5060370;28;20044;-72
2023/11/30 01:37:18;;;;;;;6.22;4.10;;;;;;;-0.93;100.00;95279.69;5046297;28;20051;-71
2023/11/30 01:39:44;;;;;;;6.72;3.70;;;;;;;-0.98;100.00;95270.69;5050030;28;20071;-69
2023/11/30 01:42:09;;;;;;;6.80;3.70;;;;;;;-0.89;100.00;95276.00;5036416;28;20499;-70
2023/11/30 01:44:34;;;;;;;7.03;4.28;;;;;;;-0.91;100.00;95274.75;5060764;28;20044;-72
2023/11/30 01:47:00;;;;;;;5.40;3.75;;;;;;;-0.96;100.00;95273.81;5060843;28;20040;-71
2023/11/30 01:49:26;;;;;;;7.00;3.67;;;;;;;-0.97;100.00;95274.16;5056635;28;20131;-72
2023/11/30 01:51:51;;;;;;;6.43;4.07;;;;;;;-0.95;100.00;95274.63;5056297;28;20049;-72
2023/11/30 01:54:17;;;;;;;9.80;3.63;;;;;;;-0.89;100.00;95276.00;5053110;28;20458;-73
2023/11/30 01:56:43;;;;;;;6.70;3.95;;;;;;;-0.90;100.00;95277.13;5060910;28;20040;-73
2023/11/30 01:59:11;;;;;;;5.18;3.58;;;;;;;-0.89;100.00;95269.84;5055943;28;20568;-74
2023/11/30 02:01:37;;;;;;;5.55;4.22;;;;;;;-0.93;100.00;95272.41;5034777;28;20052;-73
2023/11/30 02:04:12;;;;;;;6.82;4.18;;;;;;;-0.92;100.00;95265.88;5039553;28;20040;-73
2023/11/30 02:06:37;;;;;;;7.45;4.03;;;;;;;-0.96;100.00;95263.06;5060071;28;20572;-72
2023/11/30 02:09:04;;;;;;;6.63;3.83;;;;;;;-0.96;100.00;95264.97;5058752;28;20052;-76
2023/11/30 02:11:30;;;;;;;6.25;3.47;;;;;;;-0.98;100.00;95261.84;5050637;28;20048;-73
2023/11/30 02:13:55;;;;;;;5.13;3.72;;;;;;;-0.99;100.00;95261.06;5053928;28;20379;-72
2023/11/30 02:16:21;;;;;;;4.80;3.65;;;;;;;-0.99;100.00;95260.25;5046300;28;20137;-71
2023/11/30 02:18:46;;;;;;;5.47;3.50;;;;;;;-0.98;100.00;95259.94;5049665;28;20632;-71
2023/11/30 02:21:11;;;;;;;8.85;4.07;;;;;;;-0.99;100.00;95255.69;5051715;28;20165;-72
2023/11/30 02:23:37;;;;;;;6.35;4.00;;;;;;;-1.00;100.00;95248.72;5053256;28;20109;-71
2023/11/30 02:26:02;;;;;;;5.25;3.80;;;;;;;-1.01;100.00;95239.09;5053065;28;20033;-75
2023/11/30 02:28:27;;;;;;;7.47;3.95;;;;;;;-1.01;100.00;95239.09;5056758;28;20044;-72
2023/11/30 02:30:53;;;;;;;6.53;3.78;;;;;;;-1.02;100.00;95237.50;5062108;28;20047;-72
2023/11/30 02:33:18;;;;;;;6.00;3.78;;;;;;;-1.00;100.00;95253.31;5058108;28;20040;-71
2023/11/30 02:35:44;;;;;;;4.95;3.35;;;;;;;-0.98;100.00;95248.41;5034792;28;20044;-73
2023/11/30 02:38:09;;;;;;;5.85;3.58;;;;;;;-0.98;100.00;95234.97;5058728;28;20033;-72
2023/11/30 02:40:34;;;;;;;6.28;4.22;;;;;;;-0.96;100.00;95254.22;5059386;28;20055;-72
2023/11/30 02:43:00;;;;;;;6.10;3.90;;;;;;;-0.91;100.00;95264.00;5068606;28;20483;-72
2023/11/30 02:45:25;;;;;;;6.63;3.83;;;;;;;-0.86;100.00;95256.53;5056987;28;20563;-72
2023/11/30 02:47:51;;;;;;;5.50;3.70;;;;;;;-0.82;100.00;95244.00;5048844;28;20599;-71
2023/11/30 02:50:16;;;;;;;5.43;3.80;;;;;;;-0.73;100.00;95235.09;5042116;28;20051;-72
2023/11/30 02:52:41;;;;;;;9.30;5.38;;;;;;;-0.79;100.00;95237.19;5053427;28;20048;-71
2023/11/30 02:55:07;;;;;;;5.60;3.53;;;;;;;-0.75;100.00;95230.03;5056851;28;20052;-71
2023/11/30 02:57:33;;;;;;;5.80;3.55;;;;;;;-0.62;100.00;95238.94;5052579;28;20510;-72
2023/11/30 02:59:59;;;;;;;4.95;3.53;;;;;;;-0.68;100.00;95235.66;5040142;28;20037;-72
2023/11/30 03:02:24;;;;;;;8.75;3.72;;;;;;;-0.59;100.00;95238.28;5046513;28;20080;-72
2023/11/30 03:04:49;;;;;;;7.18;4.03;;;;;;;-0.60;100.00;95229.41;5039852;28;20072;-71
2023/11/30 03:07:15;;;;;;;8.25;3.45;;;;;;;-0.53;100.00;95238.84;5051130;28;20043;-72
2023/11/30 03:09:40;;;;;;;7.68;3.47;;;;;;;-0.62;100.00;95218.19;5049158;28;20063;-72
2023/11/30 03:12:06;;;;;;;8.10;3.63;;;;;;;-0.56;100.00;95245.66;5025085;28;20124;-71
2023/11/30 03:14:32;;;;;;;6.43;3.65;;;;;;;-0.24;100.00;95227.16;5054522;28;20113;-71
2023/11/30 03:16:57;;;;;;;5.25;3.33;;;;;;;-0.43;100.00;95233.84;5044882;28;20106;-71
2023/11/30 03:19:22;;;;;;;6.18;3.63;;;;;;;-0.35;100.00;95231.41;5045355;28;20939;-71
2023/11/30 03:21:52;;;;;;;5.30;3.00;;;;;;;-0.49;100.00;95235.16;5053061;28;20076;-71
2023/11/30 03:24:18;;;;;;;5.75;3.35;;;;;;;-0.54;100.00;95234.59;5045467;28;20091;-72
2023/11/30 03:26:44;;;;;;;6.65;2.97;;;;;;;-0.56;100.00;95245.66;5029730;28;20044;-72
2023/11/30 03:29:10;;;;;;;6.70;3.55;;;;;;;-0.56;100.00;95244.88;5050240;28;20093;-73
2023/11/30 03:31:35;;;;;;;6.22;3.70;;;;;;;-0.57;100.00;95243.34;5030518;28;20048;-74
2023/11/30 03:34:01;;;;;;;5.22;3.10;;;;;;;-0.54;100.00;95224.63;5046659;28;20041;-71
2023/11/30 03:36:26;;;;;;;5.32;3.33;;;;;;;-0.43;100.00;95231.16;5044254;28;20048;-71
2023/11/30 03:38:53;;;;;;;5.70;3.30;;;;;;;-0.28;100.00;95239.72;5050891;28;20050;-72
2023/11/30 03:41:23;;;;;;;6.72;3.38;;;;;;;-0.40;100.00;95252.03;5035988;28;20037;-72
2023/11/30 03:43:48;;;;;;;5.60;3.70;;;;;;;-0.30;100.00;95264.25;5050873;28;20033;-71
2023/11/30 03:46:14;;;;;;;7.32;4.00;;;;;;;-0.03;100.00;95246.72;5038831;28;20132;-72
2023/11/30 03:48:40;;;;;;;4.57;3.38;;;;;;;-0.10;100.00;95243.78;5054731;28;20040;-72
2023/11/30 03:51:06;;;;;;;4.40;3.08;;;;;;;-0.05;100.00;95261.66;5047721;28;20461;-71
2023/11/30 03:53:32;;;;;;;5.28;3.50;;;;;;;0.03;100.00;95244.59;5050869;28;20067;-72
2023/11/30 03:55:59;;;;;;;5.65;3.63;;;;;;;0.03;100.00;95244.59;5035799;28;20544;-71
2023/11/30 03:58:25;;;;;;;6.03;3.20;;;;;;;0.09;100.00;95253.25;5043927;28;20054;-72
2023/11/30 04:00:50;;;;;;;5.50;3.10;;;;;;;-0.13;100.00;95231.00;5031907;28;20780;-73
2023/11/30 04:03:15;;;;;;;10.00;3.47;;;;;;;0.17;100.00;95241.59;5019709;28;20591;-72
2023/11/30 04:05:41;;;;;;;4.78;3.25;;;;;;;0.01;100.00;95246.84;5047320;28;20131;-72
2023/11/30 04:08:06;;;;;;;8.30;3.85;;;;;;;0.01;100.00;95236.09;5022273;28;20403;-72
2023/11/30 04:10:32;;;;;;;7.00;3.75;;;;;;;0.06;100.00;95227.78;5029957;28;20105;-73
2023/11/30 04:12:57;;;;;;;5.88;3.42;;;;;;;-0.05;100.00;95223.97;5050961;28;20127;-73
2023/11/30 04:15:23;;;;;;;4.75;3.38;;;;;;;-0.09;100.00;95231.13;5031644;28;20508;-72
2023/11/30 04:17:48;;;;;;;6.05;4.03;;;;;;;0.03;100.00;95231.16;5051041;28;20045;-72
2023/11/30 04:20:14;;;;;;;5.40;3.13;;;;;;;0.14;100.00;95228.81;5026455;28;20128;-71
2023/11/30 04:22:39;;;;;;;7.85;3.78;;;;;;;0.21;100.00;95233.63;5044177;28;20037;-72
2023/11/30 04:25:05;;;;;;;7.03;3.80;;;;;;;0.32;100.00;95219.38;5018939;28;20052;-72
2023/11/30 04:27:30;;;;;;;8.95;3.92;;;;;;;0.30;100.00;95216.25;5032877;28;20103;-72
2023/11/30 04:29:56;;;;;;;6.25;3.58;;;;;;;0.17;100.00;95211.97;5037823;28;20036;-71
2023/11/30 04:32:21;;;;;;;8.52;3.45;;;;;;;0.20;100.00;95216.69;5054805;28;20441;-72
2023/11/30 04:34:46;;;;;;;4.70;3.42;;;;;;;0.17;100.00;95223.53;5034753;28;20036;-71
2023/11/30 04:37:12;;;;;;;7.15;3.30;;;;;;;0.10;100.00;95212.53;5030710;28;20049;-72
2023/11/30 04:39:40;;;;;;;5.20;3.72;;;;;;;-0.17;100.00;95202.41;5046018;28;20044;-71
2023/11/30 04:42:06;;;;;;;5.35;3.72;;;;;;;-0.25;100.00;95204.88;5033859;28;20430;-69
2023/11/30 04:44:31;;;;;;;4.80;3.30;;;;;;;-0.24;100.00;95194.88;5047921;28;20048;-71
2023/11/30 04:46:56;;;;;;;6.97;3.75;;;;;;;-0.08;100.00;95189.63;5048348;28;20480;-71
2023/11/30 04:49:22;;;;;;;4.47;3.35;;;;;;;0.10;100.00;95198.28;5018446;28;21001;-71
2023/11/30 04:51:47;;;;;;;6.15;3.50;;;;;;;0.18;100.00;95192.81;5044659;28;20037;-72
2023/11/30 04:54:13;;;;;;;6.85;3.83;;;;;;;0.35;100.00;95181.00;5037595;28;20118;-71
2023/11/30 04:56:38;;;;;;;5.90;4.15;;;;;;;0.33;100.00;95188.66;5023331;28;20706;-71
2023/11/30 04:59:04;;;;;;;7.50;3.88;;;;;;;0.34;100.00;95178.66;5034927;28;20055;-72
2023/11/30 05:01:30;;;;;;;7.10;4.75;;;;;;;0.40;100.00;95174.63;5028758;28;20506;-70
2023/11/30 05:03:58;;;;;;;7.15;4.97;;;;;;;0.45;100.00;95170.91;5050062;28;20557;-72
2023/11/30 05:06:24;;;;;;;7.83;4.90;;;;;;;0.45;100.00;95160.94;5040780;28;20463;-70
2023/11/30 05:08:49;;;;;;;6.93;4.30;;;;;;;0.34;100.00;95146.31;5042630;28;20091;-72
2023/11/30 05:11:15;;;;;;;7.28;4.38;;;;;;;0.29;100.00;95151.94;5044319;28;20032;-71
2023/11/30 05:13:41;;;;;;;6.95;3.95;;;;;;;0.31;100.00;95149.72;5049575;28;20049;-72
2023/11/30 05:16:07;;;;;;;6.60;4.75;;;;;;;0.22;100.00;95139.06;5051137;28;20047;-71
2023/11/30 05:18:32;;;;;;;7.13;4.20;;;;;;;0.16;100.00;95130.44;5054808;28;20372;-72
2023/11/30 05:20:58;;;;;;;10.00;3.95;;;;;;;0.21;100.00;95126.72;5055209;28;20049;-72
2023/11/30 05:23:24;;;;;;;5.45;3.80;;;;;;;-0.02;100.00;95121.81;5046606;28;20033;-71
2023/11/30 05:25:49;;;;;;;6.32;4.00;;;;;;;0.03;100.00;95125.38;5050969;28;20486;-70
2023/11/30 05:28:15;;;;;;;4.82;3.22;;;;;;;-0.02;100.00;95116.41;5045322;28;20125;-69
2023/11/30 05:30:40;;;;;;;6.35;3.83;;;;;;;-0.50;100.00;95114.50;5048541;28;20041;-71
2023/11/30 05:33:06;;;;;;;4.57;3.50;;;;;;;-0.80;100.00;95107.34;5044798;28;20137;-72
2023/11/30 05:35:33;;;;;;;6.93;3.80;;;;;;;-0.96;100.00;95106.41;5040932;28;20407;-74
2023/11/30 05:37:58;;;;;;;6.80;4.20;;;;;;;-1.16;100.00;95102.66;5047576;28;20040;-75
2023/11/30 05:40:24;;;;;;;6.25;4.25;;;;;;;-1.26;100.00;95103.84;5034694;28;20516;-74
2023/11/30 05:42:50;;;;;;;7.45;4.20;;;;;;;-1.25;100.00;95104.63;5046170;28;20045;-73
2023/11/30 05:45:15;;;;;;;8.80;4.88;;;;;;;-1.32;100.00;95099.00;5048554;28;20041;-76
2023/11/30 05:47:41;;;;;;;10.43;4.95;;;;;;;-1.35;100.00;95097.78;5045172;28;20044;-75
2023/11/30 05:50:07;;;;;;;7.47;5.15;;;;;;;-1.44;100.00;95092.47;5030732;28;20122;-75
2023/11/30 05:52:32;;;;;;;7.55;5.13;;;;;;;-1.42;100.00;95092.91;5042695;28;20048;-75
2023/11/30 05:54:57;;;;;;;7.72;5.72;;;;;;;-1.30;100.00;95089.50;5046663;28;20084;-75
2023/11/30 05:57:23;;;;;;;10.57;5.80;;;;;;;-1.39;100.00;95086.91;5040492;28;20093;-73
2023/11/30 05:59:49;;;;;;;10.02;5.97;;;;;;;-1.40;100.00;95090.69;5066782;28;20051;-74
2023/11/30 06:02:17;;;;;;;9.18;5.57;;;;;;;-1.37;100.00;95099.97;5060733;28;20526;-73
2023/11/30 06:04:52;;;;;;;10.85;7.00;;;;;;;-1.46;100.00;95081.28;5063372;28;20086;-73
2023/11/30 06:07:18;;;;;;;9.32;6.35;;;;;;;-1.46;100.00;95085.84;5048187;28;20045;-72
2023/11/30 06:09:44;;;;;;;9.10;6.63;;;;;;;-1.57;100.00;95083.56;5053091;28;20064;-73
2023/11/30 06:12:09;;;;;;;11.60;7.35;;;;;;;-1.65;100.00;95072.91;5056351;28;20040;-72
2023/11/30 06:14:35;;;;;;;10.20;7.18;;;;;;;-1.63;100.00;95068.75;5052078;28;20114;-72
2023/11/30 06:17:00;;;;;;;8.70;6.40;;;;;;;-1.66;100.00;95074.00;5047018;28;20033;-72
2023/11/30 06:19:26;;;;;;;10.82;6.82;;;;;;;-1.66;100.00;95061.34;5055362;28;20391;-72
2023/11/30 06:21:51;;;;;;;11.73;7.55;;;;;;;-1.71;100.00;95068.81;5053379;28;20113;-72
2023/11/30 06:24:16;;;;;;;16.00;7.78;;;;;;;-1.74;100.00;95062.22;5050103;28;20065;-70
2023/11/30 06:26:42;;;;;;;11.88;8.27;;;;;;;-1.68;100.00;95062.81;5047224;28;20491;-69
2023/11/30 06:29:11;;;;;;;14.25;9.50;;;;;;;-1.74;100.00;95057.63;5036675;28;20045;-68
2023/11/30 06:31:37;;;;;;;13.93;8.70;;;;;;;-1.69;100.00;95058.53;5035009;28;20049;-72
2023/11/30 06:34:03;;;;;;;13.48;8.48;;;;;;;-1.65;100.00;95062.16;5052938;28;20040;-69
2023/11/30 06:36:29;;;;;;;18.95;9.00;;;;;;;-1.61;100.00;95057.69;5040144;28;20033;-72
2023/11/30 06:38:54;;;;;;;15.30;9.30;;;;;;;-1.62;100.00;95050.75;5040461;28;20398;-71
2023/11/30 06:41:19;;;;;;;14.43;8.90;;;;;;;-1.61;100.00;95057.69;5033528;28;20044;-72
2023/11/30 06:43:47;;;;;;;15.70;9.40;;;;;;;-1.58;100.00;95055.13;5049939;28;20127;-71
2023/11/30 06:46:20;;;;;;;15.63;9.60;;;;;;;-1.56;100.00;95049.44;5057052;28;20099;-72
2023/11/30 06:48:47;;;;;;;13.45;9.32;;;;;;;-1.64;100.00;95039.56;5042611;28;20037;-71
2023/11/30 06:51:13;;;;;;;19.08;10.55;;;;;;;-1.62;100.00;95043.50;5033169;28;20124;-70
2023/11/30 06:53:38;;;;;;;14.98;9.80;;;;;;;-1.60;100.00;95041.25;5054247;28;20048;-71
2023/11/30 06:56:04;;;;;;;17.75;9.88;;;;;;;-1.61;100.00;95034.31;5038077;28;20052;-69
2023/11/30 06:58:29;;;;;;;17.08;10.73;;;;;;;-1.59;100.00;95036.66;5019074;28;20133;-71
2023/11/30 07:00:54;;;;;;;19.10;10.55;;;;;;;-1.57;100.00;95045.19;5015998;28;20037;-70
2023/11/30 07:03:20;;;;;;;23.85;13.95;;;;;;;-1.54;100.00;95048.00;5019867;28;20049;-71
2023/11/30 07:05:45;;;;;;;26.27;15.10;;;;;;;-1.54;100.00;95039.16;5034937;28;20514;-69
2023/11/30 07:08:11;;;;;;;22.02;13.73;;;;;;;-1.47;100.00;95036.72;5031989;28;20045;-70
2023/11/30 07:10:36;;;;;;;21.20;12.75;;;;;;;-1.51;100.00;95038.50;5043354;28;20048;-70
2023/11/30 07:13:02;;;;;;;20.48;13.48;;;;;;;-1.52;100.00;95044.97;5041424;28;20491;-72
2023/11/30 07:15:27;;;;;;;23.83;13.43;;;;;;;-1.48;100.00;95045.09;5042283;28;20083;-69
2023/11/30 07:17:53;;;;;;;25.42;13.70;;;;;;;-1.46;100.00;95056.31;5064698;28;20592;-71
2023/11/30 07:20:18;;;;;;;18.90;12.40;;;;;;;-1.46;100.00;95053.63;5031986;28;20114;-68
2023/11/30 07:22:43;;;;;;;21.42;12.80;;;;;;;-1.49;100.00;95059.66;5058671;28;20118;-68
2023/11/30 07:25:09;;;;;;;20.27;13.10;;;;;;;-1.50;100.00;95052.72;5036477;28;20090;-69
2023/11/30 07:27:34;;;;;;;19.05;13.10;;;;;;;-1.53;100.00;95059.53;5059357;28;20553;-71
2023/11/30 07:30:00;;;;;;;23.95;14.23;;;;;;;-1.51;100.00;95051.94;5054112;28;20577;-70
2023/11/30 07:32:26;;;;;;;24.75;13.98;;;;;;;-1.49;100.00;95049.69;5052339;28;20063;-70
2023/11/30 07:34:51;;;;;;;35.67;22.52;;;;;;;-1.45;100.00;95047.16;5051405;28;20040;-70
2023/11/30 07:37:17;;;;;;;36.25;20.85;;;;;;;-1.41;100.00;95048.03;5020119;28;20052;-70
2023/11/30 07:39:43;;;;;;;29.30;19.08;;;;;;;-1.46;100.00;95046.38;5059245;28;20051;-70
2023/11/30 07:42:09;;;;;;;30.70;19.27;;;;;;;-1.45;100.00;95050.59;5037087;28;20127;-69
2023/11/30 07:44:35;;;;;;;43.90;25.23;;;;;;;-1.43;100.00;95056.44;5058077;28;20230;-68
2023/11/30 07:47:01;;;;;;;29.48;17.33;;;;;;;-1.42;100.00;95051.88;5063371;28;20050;-69
2023/11/30 07:49:26;;;;;;;27.92;18.38;;;;;;;-1.42;100.00;95051.88;5031416;28;20147;-69
2023/11/30 07:51:51;;;;;;;36.05;24.33;;;;;;;-1.41;100.00;95058.78;5063076;28;20107;-68
2023/11/30 07:54:17;;;;;;;35.80;23.10;;;;;;;-1.30;100.00;95056.47;5041894;28;20055;-70
2023/11/30 07:56:43;;;;;;;30.73;18.05;;;;;;;-1.32;100.00;95051.44;5061297;28;20139;-68
2023/11/30 07:59:12;;;;;;;28.77;18.02;;;;;;;-1.34;100.00;95059.03;5057559;28;20490;-68
2023/11/30 08:01:38;;;;;;;30.55;19.85;;;;;;;-1.41;100.00;95048.03;5060190;28;20048;-70
2023/11/30 08:04:03;;;;;;;26.98;16.83;;;;;;;-1.40;100.00;95050.41;5020999;28;20131;-69
2023/11/30 08:06:29;;;;;;;24.88;15.40;;;;;;;-1.39;100.00;95048.50;5037789;28;20340;-69
2023/11/30 08:08:54;;;;;;;29.08;16.45;;;;;;;-1.38;100.00;95052.78;5041802;28;20040;-68
2023/11/30 08:11:20;;;;;;;35.10;19.90;;;;;;;-1.36;100.00;95053.22;5049883;28;20140;-69
2023/11/30 08:13:45;;;;;;;30.80;18.52;;;;;;;-1.27;100.00;95051.22;5060177;28;20345;-69
2023/11/30 08:16:11;;;;;;;29.23;18.45;;;;;;;-1.31;100.00;95058.38;5062458;28;20040;-68
2023/11/30 08:18:36;;;;;;;30.23;18.17;;;;;;;-1.27;100.00;95061.19;5067702;28;20066;-69
2023/11/30 08:21:09;;;;;;;34.58;22.13;;;;;;;-1.26;100.00;95068.94;5054287;28;20048;-69
2023/11/30 08:23:36;;;;;;;43.58;29.35;;;;;;;-1.26;100.00;95071.63;5060407;28;20108;-69
2023/11/30 08:26:03;;;;;;;35.67;22.40;;;;;;;-1.18;100.00;95067.28;5061187;28;20131;-69
2023/11/30 08:28:29;;;;;;;44.97;28.90;;;;;;;-1.22;100.00;95064.47;5058658;28;20116;-69
2023/11/30 08:30:55;;;;;;;36.97;22.48;;;;;;;-1.19;100.00;95063.81;5061064;28;20036;-68
2023/11/30 08:33:21;;;;;;;40.42;22.25;;;;;;;-1.16;100.00;95057.75;5054449;28;20040;-69
2023/11/30 08:35:46;;;;;;;32.83;18.95;;;;;;;-1.19;100.00;95044.19;5058400;28;20135;-69
2023/11/30 08:38:12;;;;;;;35.83;19.25;;;;;;;-1.19;100.00;95047.69;5055363;28;20041;-68
2023/11/30 08:40:37;;;;;;;31.75;18.88;;;;;;;-1.22;100.00;95048.34;5059837;28;20223;-68
2023/11/30 08:43:02;;;;;;;32.08;17.40;;;;;;;-1.16;100.00;95044.31;5041139;28;20045;-69
2023/11/30 08:45:28;;;;;;;34.13;18.75;;;;;;;-1.17;100.00;95044.66;5056437;28;20130;-69
2023/11/30 08:47:53;;;;;;;34.05;19.38;;;;;;;-1.16;100.00;95038.16;5058775;28;20335;-69
2023/11/30 08:50:19;;;;;;;33.28;19.42;;;;;;;-1.18;100.00;95035.03;5053785;28;20127;-68
2023/11/30 08:52:45;;;;;;;37.85;19.13;;;;;;;-1.17;100.00;95040.06;5059290;28;20144;-68
2023/11/30 08:55:10;;;;;;;33.60;18.00;;;;;;;-1.16;100.00;95040.84;5045975;28;20388;-69
2023/11/30 08:57:36;;;;;;;36.40;21.50;;;;;;;-1.13;100.00;95044.78;5040422;28;20085;-69
2023/11/30 09:00:06;;;;;;;52.88;30.70;;;;;;;-1.17;100.00;95032.03;5059313;28;20498;-69
2023/11/30 09:02:31;;;;;;;;;;;;;;;-1.16;100.00;95041.63;5058083;28;20060;-69
2023/11/30 09:04:57;;;;;;;37.03;20.38;;;;;;;-1.12;100.00;95039.06;5060016;28;19917;-69
2023/11/30 09:07:22;;;;;;;54.38;33.05;;;;;;;-1.10;100.00;95031.47;5056568;28;20417;-69
2023/11/30 09:09:48;;;;;;;51.50;31.98;;;;;;;-1.14;100.00;95035.94;5044287;28;20040;-68
2023/11/30 09:12:13;;;;;;;53.50;33.15;;;;;;;-1.11;100.00;95039.88;5031602;28;20041;-69
2023/11/30 09:14:39;;;;;;;41.58;24.67;;;;;;;-1.10;100.00;95031.47;5048008;28;20037;-69
2023/11/30 09:17:05;;;;;;;46.58;30.13;;;;;;;-1.06;100.00;95028.88;5058242;28;20032;-69
2023/11/30 09:19:31;;;;;;;45.97;28.63;;;;;;;-1.02;100.00;95019.84;5061528;28;20129;-69
2023/11/30 09:21:57;;;;;;;49.67;32.97;;;;;;;-0.98;100.00;95023.44;5053377;28;20037;-68
2023/11/30 09:24:22;;;;;;;40.58;23.23;;;;;;;-0.94;100.00;95015.47;5060988;28;20055;-70
2023/11/30 09:26:55;;;;;;;42.03;23.48;;;;;;;-0.96;100.00;95018.50;5070693;28;20041;-69
2023/11/30 09:29:21;;;;;;;33.75;17.88;;;;;;;-0.94;100.00;95014.69;5059855;28;20044;-69
2023/11/30 09:31:46;;;;;;;36.88;19.65;;;;;;;-0.97;100.00;95014.25;5064389;28;20048;-70
2023/11/30 09:34:12;;;;;;;32.63;18.92;;;;;;;-0.90;100.00;95013.72;5063241;28;20036;-69
2023/11/30 09:36:41;;;;;;;37.90;22.08;;;;;;;-0.86;100.00;95008.47;5064353;28;20101;-70
2023/11/30 09:39:13;;;;;;;35.50;18.15;;;;;;;-0.86;100.00;95011.16;5056565;28;20032;-70
2023/11/30 09:41:39;;;;;;;31.90;17.75;;;;;;;-0.72;100.00;95005.41;5060418;28;20407;-71
2023/11/30 09:44:06;;;;;;;36.95;23.13;;;;;;;-0.68;100.00;95006.34;5039489;28;20032;-71
2023/11/30 09:46:34;;;;;;;32.10;16.92;;;;;;;-0.51;100.00;95003.41;5042671;28;20050;-70
2023/11/30 09:49:00;;;;;;;39.75;19.17;;;;;;;-0.44;100.00;95008.25;5036341;28;20131;-69
2023/11/30 09:51:30;;;;;;;30.60;16.52;;;;;;;-0.45;100.00;95006.66;5057978;28;20136;-69
2023/11/30 09:53:57;;;;;;;27.73;16.52;;;;;;;-0.49;100.00;94990.41;5054750;28;20040;-71
2023/11/30 09:56:26;;;;;;;24.77;13.93;;;;;;;-0.23;100.00;94986.59;5058351;28;20242;-71
2023/11/30 09:58:52;;;;;;;24.25;13.90;;;;;;;-0.09;100.00;94980.81;5049848;28;20063;-71
2023/11/30 10:01:17;;;;;;;24.00;13.70;;;;;;;-0.09;100.00;94976.25;5051016;28;20040;-71
2023/11/30 10:03:43;;;;;;;19.95;10.93;;;;;;;-0.46;100.00;94972.81;5061484;28;20593;-71
2023/11/30 10:06:09;;;;;;;51.50;33.78;;;;;;;-0.40;100.00;94977.66;5056147;28;20055;-69
2023/11/30 10:08:34;;;;;;;24.15;15.00;;;;;;;-0.26;100.00;94971.88;5051659;28;20131;-69
2023/11/30 10:10:59;;;;;;;20.80;11.52;;;;;;;-0.13;100.00;94969.19;5062898;28;20454;-69
2023/11/30 10:13:25;;;;;;;15.95;10.75;;;;;;;-0.12;100.00;94976.91;5056588;28;20049;-70
2023/11/30 10:15:50;;;;;;;21.48;11.02;;;;;;;0.09;100.00;94975.97;5033155;28;20729;-70
2023/11/30 10:18:16;;;;;;;19.27;10.88;;;;;;;0.25;100.00;94963.34;5047620;28;20053;-70
2023/11/30 10:20:42;;;;;;;22.17;12.25;;;;;;;0.32;100.00;94963.53;5040514;28;20038;-69
2023/11/30 10:23:12;;;;;;;17.83;11.13;;;;;;;0.23;100.00;94968.28;5048823;28;20655;-70
2023/11/30 10:25:38;;;;;;;23.20;12.52;;;;;;;0.10;100.00;94953.31;5061379;28;20045;-69
2023/11/30 10:28:06;;;;;;;21.35;12.25;;;;;;;0.27;100.00;94946.84;5054461;28;20209;-70
2023/11/30 10:30:31;;;;;;;23.02;13.18;;;;;;;0.41;100.00;94938.38;5059787;28;20506;-70
2023/11/30 10:33:00;;;;;;;23.00;13.07;;;;;;;0.54;100.00;94931.78;5058811;28;20051;-70
2023/11/30 10:35:30;;;;;;;19.00;12.32;;;;;;;0.53;100.00;94939.09;5060676;28;20505;-69
2023/11/30 10:37:57;;;;;;;16.83;11.20;;;;;;;0.59;100.00;94933.47;5057294;28;20040;-69
2023/11/30 10:40:25;;;;;;;18.88;11.25;;;;;;;0.54;100.00;94926.41;5038610;28;20048;-69
2023/11/30 10:42:51;;;;;;;15.88;10.23;;;;;;;0.60;100.00;94927.72;5058516;28;20044;-70
2023/11/30 10:45:19;;;;;;;14.82;10.15;;;;;;;0.67;100.00;94933.31;5068385;22;20044;-73
2023/11/30 10:47:47;;;;;;;15.50;10.13;;;;;;;0.68;100.00;94937.53;5051660;28;20418;-73
2023/11/30 10:50:13;;;;;;;19.30;11.13;;;;;;;0.68;100.00;94942.94;5034331;28;20580;-73
2023/11/30 10:52:40;;;;;;;21.88;11.70;;;;;;;0.70;100.00;94932.63;5042707;28;20120;-73
2023/11/30 10:55:12;;;;;;;19.73;11.55;;;;;;;0.54;100.00;94929.09;5057101;28;20124;-72
2023/11/30 10:57:45;;;;;;;17.77;11.38;;;;;;;0.66;100.00;94926.34;5037389;28;20115;-74
2023/11/30 11:00:15;;;;;;;19.70;12.18;;;;;;;0.75;100.00;94918.09;5040762;28;20419;-72
2023/11/30 11:02:47;;;;;;;20.70;11.25;;;;;;;0.87;100.00;94912.63;5060198;28;20135;-73
2023/11/30 11:05:14;;;;;;;17.10;10.32;;;;;;;0.97;100.00;94916.69;5045625;28;20064;-72
2023/11/30 11:07:52;;;;;;;17.27;10.32;;;;;;;0.99;100.00;94913.66;5070410;28;20106;-72
2023/11/30 11:10:31;;;;;;;16.58;10.23;;;;;;;1.03;100.00;94915.31;5050963;28;20045;-72
2023/11/30 11:13:00;;;;;;;19.23;11.30;;;;;;;1.09;100.00;94915.84;5075945;28;20040;-73